Avilla, Missouri
Current Conditions -  °F | °C
As of 9:53 AM on Thursday 27 Nov 2014 (Local Time) from KJLN Reporting Station
Scattered Clouds Scattered Clouds  
Wind Chill: 30°   Ceiling: Unl
Heat Index: 30°   Visibility: 8mi
Dew Point: 24°   Wind: 3mph
Humidity: 79%   Direction: NA
Pressure: 30.55"   Gusts: NA
Location:  37.2°N, 94.13°W
Report Text: KJLN 271553Z VRB03KT 8SM SCT014 M01/M04 A3055 RMK AO2 SLP354 T10111044
Loading
Personal Weather Stations






























Interactive Weather Map New forecast layout! Learn more

10-Day Weather Forecast

Advertisements
Track Severe Weather on mobile